createdAt,value
2018-02-18T00:01:12.915Z,83.10
2018-02-18T00:03:40.400Z,83.40
2018-02-18T00:06:07.961Z,83.60
2018-02-18T00:08:35.448Z,83.30
2018-02-18T00:11:02.957Z,83.30
2018-02-18T00:13:30.452Z,83.50
2018-02-18T00:15:58.351Z,83.40
2018-02-18T00:18:25.836Z,83.40
2018-02-18T00:20:53.346Z,83.40
2018-02-18T00:23:20.921Z,83.40
2018-02-18T00:25:48.435Z,83.60
2018-02-18T00:28:15.929Z,83.90
2018-02-18T00:30:43.426Z,83.60
2018-02-18T00:33:10.936Z,83.80
2018-02-18T00:35:38.834Z,83.40
2018-02-18T00:38:06.348Z,83.30
2018-02-18T00:40:33.852Z,83.80
2018-02-18T00:43:01.820Z,83.60
2018-02-18T00:45:29.314Z,83.60
2018-02-18T00:47:56.815Z,83.60
2018-02-18T00:50:24.309Z,83.80
2018-02-18T00:52:51.820Z,83.80
2018-02-18T00:55:19.704Z,84.10
2018-02-18T00:57:47.209Z,84.10
2018-02-18T01:00:14.695Z,83.90
2018-02-18T01:02:42.296Z,83.60
2018-02-18T01:05:09.793Z,83.50
2018-02-18T01:07:37.472Z,83.80
2018-02-18T01:10:04.970Z,84.30
2018-02-18T01:12:32.486Z,84.30
2018-02-18T01:14:59.975Z,84.40
2018-02-18T01:17:27.945Z,84.30
2018-02-18T01:19:55.836Z,84.30
2018-02-18T01:22:23.344Z,84.30
2018-02-18T01:24:50.837Z,83.80
2018-02-18T01:27:18.354Z,84.00
2018-02-18T01:29:45.844Z,84.20
2018-02-18T01:32:13.352Z,84.30
2018-02-18T01:34:40.839Z,84.50
2018-02-18T01:37:08.350Z,84.60
2018-02-18T01:39:35.840Z,84.60
2018-02-18T01:42:03.350Z,84.60
2018-02-18T01:44:30.847Z,84.50
2018-02-18T01:46:58.352Z,84.20
2018-02-18T01:49:25.847Z,84.50
2018-02-18T01:51:53.444Z,84.40
2018-02-18T01:54:21.333Z,84.50
2018-02-18T01:56:49.236Z,84.60
2018-02-18T01:59:16.747Z,84.60
2018-02-18T02:01:44.241Z,84.60
2018-02-18T02:04:12.158Z,84.60
2018-02-18T02:06:39.687Z,84.60
2018-02-18T02:09:07.187Z,84.70
2018-02-18T02:11:34.682Z,84.30
2018-02-18T02:14:02.229Z,83.80
2018-02-18T02:16:29.716Z,84.00
2018-02-18T02:18:57.225Z,84.20
2018-02-18T02:21:24.742Z,83.90
2018-02-18T02:23:52.253Z,84.80
2018-02-18T02:26:19.757Z,84.90
2018-02-18T02:28:47.745Z,84.70
2018-02-18T02:31:15.239Z,84.70
2018-02-18T02:33:42.759Z,85.30
2018-02-18T02:36:10.274Z,85.50
2018-02-18T02:38:37.779Z,85.20
2018-02-18T02:41:05.286Z,85.10
2018-02-18T02:43:32.805Z,84.60
2018-02-18T02:46:00.302Z,84.40
2018-02-18T02:48:27.818Z,84.30
2018-02-18T02:50:55.714Z,84.60
2018-02-18T02:53:23.225Z,84.60
2018-02-18T02:55:50.722Z,84.50
2018-02-18T02:58:18.233Z,84.20
2018-02-18T03:00:45.723Z,84.60
2018-02-18T03:03:13.236Z,85.20
2018-02-18T03:05:41.125Z,85.30
2018-02-18T03:08:09.023Z,85.30
2018-02-18T03:10:36.573Z,85.30
2018-02-18T03:13:04.481Z,86.00
2018-02-18T03:15:31.982Z,85.90
2018-02-18T03:17:59.489Z,85.90
2018-02-18T03:20:27.077Z,85.90
2018-02-18T03:22:54.985Z,85.70
2018-02-18T03:25:22.482Z,85.70
2018-02-18T03:27:49.988Z,85.60
2018-02-18T03:30:17.894Z,85.00
2018-02-18T03:32:45.469Z,85.00
2018-02-18T03:35:13.013Z,84.80
2018-02-18T03:37:40.896Z,85.00
2018-02-18T03:40:08.795Z,85.20
2018-02-18T03:42:36.350Z,85.20
2018-02-18T03:45:04.258Z,85.80
2018-02-18T03:47:31.757Z,85.80
2018-02-18T03:49:59.270Z,86.10
2018-02-18T03:52:27.158Z,86.00
2018-02-18T03:54:55.060Z,85.70
2018-02-18T03:57:22.544Z,85.70
2018-02-18T03:59:50.054Z,85.70
2018-02-18T04:02:17.549Z,86.00
2018-02-18T04:04:45.525Z,87.10
2018-02-18T04:07:13.418Z,87.80
2018-02-18T04:09:40.934Z,87.80
2018-02-18T04:12:08.423Z,87.00
2018-02-18T04:14:35.924Z,87.60
2018-02-18T04:17:03.818Z,87.30
2018-02-18T04:19:31.356Z,87.30
2018-02-18T04:21:58.853Z,88.00
2018-02-18T04:24:26.365Z,88.40
2018-02-18T04:26:53.852Z,88.60
2018-02-18T04:29:21.361Z,88.60
2018-02-18T04:31:48.856Z,88.50
2018-02-18T04:34:16.373Z,88.20
2018-02-18T04:36:43.873Z,88.00
2018-02-18T04:39:11.416Z,88.20
2018-02-18T04:41:38.901Z,88.10
2018-02-18T04:44:06.810Z,88.20
2018-02-18T04:46:34.299Z,88.20
2018-02-18T04:49:01.805Z,88.30
2018-02-18T04:51:29.299Z,88.40
2018-02-18T04:53:57.200Z,88.10
2018-02-18T04:56:24.698Z,88.20
2018-02-18T04:58:52.193Z,88.30
2018-02-18T05:01:19.705Z,88.20
2018-02-18T05:03:47.314Z,87.60
2018-02-18T05:06:14.789Z,87.50
2018-02-18T05:08:42.275Z,88.30
2018-02-18T05:11:09.877Z,88.90
2018-02-18T05:13:37.764Z,89.00
2018-02-18T05:16:05.282Z,89.00
2018-02-18T05:18:32.777Z,88.60
2018-02-18T05:21:00.297Z,88.10
2018-02-18T05:23:27.784Z,88.20
2018-02-18T05:25:55.293Z,88.20
2018-02-18T05:28:22.789Z,88.50
2018-02-18T05:30:50.694Z,87.90
2018-02-18T05:33:18.190Z,87.90
2018-02-18T05:35:45.701Z,87.60
2018-02-18T05:38:14.089Z,87.80
2018-02-18T05:40:41.987Z,88.40
2018-02-18T05:43:09.471Z,88.40
2018-02-18T05:45:36.976Z,88.20
2018-02-18T05:48:04.469Z,88.70
2018-02-18T05:50:31.986Z,88.60
2018-02-18T05:52:59.472Z,89.30
2018-02-18T05:55:26.980Z,88.90
2018-02-18T05:57:54.472Z,89.00
2018-02-18T06:00:22.378Z,88.60
2018-02-18T06:02:49.864Z,88.60
2018-02-18T06:05:17.377Z,88.70
2018-02-18T06:07:45.270Z,88.90
2018-02-18T06:10:12.791Z,88.90
2018-02-18T06:12:40.281Z,88.90
2018-02-18T06:15:07.784Z,88.90
2018-02-18T06:17:35.678Z,88.70
2018-02-18T06:20:03.190Z,88.70
2018-02-18T06:22:30.685Z,88.80
2018-02-18T06:24:58.196Z,88.80
2018-02-18T06:27:25.693Z,88.60
2018-02-18T06:29:53.188Z,88.40
2018-02-18T06:32:20.706Z,88.30
2018-02-18T06:34:48.205Z,88.30
2018-02-18T06:37:15.707Z,88.20
2018-02-18T06:39:43.196Z,88.10
2018-02-18T06:42:11.181Z,87.90
2018-02-18T06:44:38.745Z,87.90
2018-02-18T06:47:06.653Z,88.20
2018-02-18T06:49:34.149Z,88.20
2018-02-18T06:52:01.658Z,88.30
2018-02-18T06:54:29.553Z,88.10
2018-02-18T06:56:57.460Z,88.10
2018-02-18T06:59:25.001Z,88.10
2018-02-18T07:01:52.903Z,88.10
2018-02-18T07:04:20.397Z,88.10
2018-02-18T07:06:47.910Z,88.10
2018-02-18T07:09:15.409Z,88.00
2018-02-18T07:11:42.955Z,87.90
2018-02-18T07:14:10.537Z,87.90
2018-02-18T07:16:38.448Z,87.80
2018-02-18T07:19:05.948Z,87.80
2018-02-18T07:21:33.547Z,87.60
2018-02-18T07:24:01.037Z,87.60
2018-02-18T07:26:29.034Z,87.50
2018-02-18T07:28:56.548Z,87.50
2018-02-18T07:31:24.062Z,87.50
2018-02-18T07:33:51.954Z,87.70
2018-02-18T07:36:19.455Z,87.70
2018-02-18T07:38:46.954Z,87.80
2018-02-18T07:41:14.470Z,87.70
2018-02-18T07:43:41.964Z,87.80
2018-02-18T07:46:09.477Z,87.60
2018-02-18T07:48:36.967Z,87.20
2018-02-18T07:51:04.879Z,87.10
2018-02-18T07:53:32.376Z,87.20
2018-02-18T07:55:59.865Z,87.20
2018-02-18T07:58:27.372Z,87.10
2018-02-18T08:00:54.865Z,87.10
2018-02-18T08:03:22.373Z,86.70
2018-02-18T08:05:49.882Z,86.60
2018-02-18T08:08:17.458Z,86.60
2018-02-18T08:10:45.026Z,86.60
2018-02-18T08:13:12.528Z,86.20
2018-02-18T08:15:40.007Z,86.00
2018-02-18T08:18:07.504Z,85.80
2018-02-18T08:20:34.989Z,85.40
2018-02-18T08:23:02.992Z,85.60
2018-02-18T08:25:30.485Z,85.60
2018-02-18T08:27:57.997Z,85.10
2018-02-18T08:30:25.484Z,84.90
2018-02-18T08:32:53.375Z,83.90
2018-02-18T08:35:21.345Z,83.00
2018-02-18T08:37:49.257Z,82.60
2018-02-18T08:40:16.763Z,82.60
2018-02-18T08:42:44.264Z,80.80
2018-02-18T08:45:12.149Z,79.00
2018-02-18T08:47:40.130Z,78.20
2018-02-18T08:50:08.027Z,77.60
2018-02-18T08:52:35.538Z,77.60
2018-02-18T08:55:03.028Z,77.30
2018-02-18T08:57:30.621Z,76.50
2018-02-18T08:59:58.518Z,75.40
2018-02-18T09:02:26.032Z,75.40
2018-02-18T09:04:53.521Z,74.50
2018-02-18T09:07:21.034Z,74.60
2018-02-18T09:09:48.530Z,74.20
2018-02-18T09:12:16.042Z,74.10
2018-02-18T09:14:43.536Z,73.40
2018-02-18T09:17:11.053Z,73.10
2018-02-18T09:19:38.542Z,73.60
2018-02-18T09:22:06.062Z,72.20
2018-02-18T09:24:33.543Z,72.40
2018-02-18T09:27:01.052Z,72.30
2018-02-18T09:29:28.561Z,71.80
2018-02-18T09:31:56.449Z,71.00
2018-02-18T09:34:23.982Z,71.00
2018-02-18T09:36:51.886Z,71.20
2018-02-18T09:39:19.791Z,69.90
2018-02-18T09:41:47.281Z,69.90
2018-02-18T09:44:14.787Z,70.40
2018-02-18T09:46:42.267Z,70.50
2018-02-18T09:49:10.169Z,70.80
2018-02-18T09:51:37.662Z,70.80
2018-02-18T09:54:05.169Z,70.40
2018-02-18T09:56:32.657Z,71.00
2018-02-18T09:59:00.556Z,71.10
2018-02-18T10:01:28.044Z,71.10
2018-02-18T10:03:55.544Z,71.20
2018-02-18T10:06:23.028Z,71.60
2018-02-18T10:08:50.532Z,71.50
2018-02-18T10:11:18.434Z,69.90
2018-02-18T10:13:45.949Z,69.90
2018-02-18T10:16:13.441Z,68.60
2018-02-18T10:18:42.058Z,70.20
2018-02-18T10:21:09.549Z,70.20
2018-02-18T10:23:37.077Z,70.20
2018-02-18T10:26:04.560Z,69.10
2018-02-18T10:28:32.471Z,69.10
2018-02-18T10:30:59.993Z,69.20
2018-02-18T10:33:27.609Z,68.90
2018-02-18T10:35:55.125Z,69.10
2018-02-18T10:38:22.655Z,69.20
2018-02-18T10:40:50.198Z,70.50
2018-02-18T10:43:18.109Z,69.50
2018-02-18T10:45:45.693Z,69.40
2018-02-18T10:48:13.201Z,69.20
2018-02-18T10:50:40.702Z,68.80
2018-02-18T10:53:08.209Z,68.00
2018-02-18T10:55:35.853Z,68.60
2018-02-18T10:58:03.413Z,67.40
2018-02-18T11:00:31.318Z,66.60
2018-02-18T11:02:58.820Z,66.50
2018-02-18T11:05:26.861Z,67.50
2018-02-18T11:07:54.341Z,67.40
2018-02-18T11:10:21.844Z,66.40
2018-02-18T11:12:49.338Z,66.90
2018-02-18T11:15:16.845Z,67.10
2018-02-18T11:17:44.379Z,67.10
2018-02-18T11:20:11.873Z,67.50
2018-02-18T11:22:39.758Z,67.40
2018-02-18T11:25:07.265Z,67.40
2018-02-18T11:27:34.758Z,67.00
2018-02-18T11:30:02.275Z,66.30
2018-02-18T11:32:29.916Z,66.70
2018-02-18T11:34:57.383Z,66.90
2018-02-18T11:37:25.044Z,65.40
2018-02-18T11:39:52.556Z,65.30
2018-02-18T11:42:20.509Z,65.80
2018-02-18T11:44:48.021Z,65.80
2018-02-18T11:47:15.736Z,65.40
2018-02-18T11:49:43.241Z,64.50
2018-02-18T11:52:11.189Z,64.00
2018-02-18T11:54:38.701Z,64.00
2018-02-18T11:57:06.700Z,65.00
2018-02-18T11:59:34.213Z,65.00
2018-02-18T12:02:01.736Z,65.20
2018-02-18T12:04:29.255Z,66.40
2018-02-18T12:06:56.836Z,66.40
2018-02-18T12:09:24.331Z,65.70
2018-02-18T12:11:52.492Z,64.70
2018-02-18T12:14:19.981Z,64.70
2018-02-18T12:16:47.696Z,64.10
2018-02-18T12:19:15.196Z,64.70
2018-02-18T12:21:42.845Z,65.60
2018-02-18T12:24:10.336Z,65.10
2018-02-18T12:26:37.941Z,65.00
2018-02-18T12:29:05.433Z,64.40
2018-02-18T12:31:33.481Z,63.70
2018-02-18T12:34:00.972Z,63.70
2018-02-18T12:36:28.570Z,62.90
2018-02-18T12:38:56.061Z,64.10
2018-02-18T12:41:23.824Z,64.90
2018-02-18T12:43:51.333Z,64.60
2018-02-18T12:46:19.071Z,65.10
2018-02-18T12:48:46.585Z,64.50
2018-02-18T12:51:14.258Z,64.60
2018-02-18T12:53:41.752Z,64.10
2018-02-18T12:56:09.290Z,63.60
2018-02-18T12:58:36.786Z,63.70
2018-02-18T13:01:04.402Z,63.80
2018-02-18T13:03:31.954Z,63.40
2018-02-18T13:05:59.937Z,64.50
2018-02-18T13:08:27.825Z,64.80
2018-02-18T13:10:55.925Z,63.80
2018-02-18T13:13:23.414Z,63.80
2018-02-18T13:15:51.048Z,63.80
2018-02-18T13:18:19.025Z,64.20
2018-02-18T13:20:46.999Z,65.00
2018-02-18T13:23:14.495Z,65.00
2018-02-18T13:25:42.033Z,63.90
2018-02-18T13:28:09.626Z,64.70
2018-02-18T13:30:37.528Z,64.90
2018-02-18T13:33:05.007Z,64.90
2018-02-18T13:35:32.613Z,65.00
2018-02-18T13:38:00.083Z,64.60
2018-02-18T13:40:27.592Z,63.50
2018-02-18T13:42:55.477Z,63.30
2018-02-18T13:45:23.361Z,64.00
2018-02-18T13:47:50.870Z,63.90
2018-02-18T13:50:18.353Z,64.30
2018-02-18T13:52:45.866Z,63.60
2018-02-18T13:55:13.835Z,63.10
2018-02-18T13:59:49.243Z,63.50
2018-02-18T14:02:16.749Z,63.80
2018-02-18T14:04:44.250Z,64.00
2018-02-18T14:07:11.765Z,63.90
2018-02-18T14:09:39.261Z,63.80
2018-02-18T14:12:06.774Z,63.90
2018-02-18T14:14:34.651Z,63.50
2018-02-18T14:17:02.561Z,63.10
2018-02-18T14:19:30.128Z,63.10
2018-02-18T14:21:57.642Z,63.70
2018-02-18T14:24:25.131Z,64.80
2018-02-18T14:26:52.641Z,64.40
2018-02-18T14:29:20.155Z,64.90
2018-02-18T14:31:47.669Z,64.60
2018-02-18T14:34:15.641Z,63.30
2018-02-18T14:36:43.210Z,63.30
2018-02-18T14:39:10.656Z,63.80
2018-02-18T14:41:50.101Z,63.70
2018-02-18T14:44:29.381Z,62.90
2018-02-18T14:47:09.376Z,62.40
2018-02-18T14:49:48.604Z,62.40
2018-02-18T14:52:28.478Z,63.10
2018-02-18T14:55:21.658Z,63.10
2018-02-18T14:57:49.170Z,63.30
2018-02-18T15:00:16.661Z,62.40
2018-02-18T15:02:44.166Z,62.30
2018-02-18T15:05:11.657Z,62.60
2018-02-18T15:07:39.177Z,62.70
2018-02-18T15:10:06.674Z,63.70
2018-02-18T15:12:34.165Z,62.60
2018-02-18T15:15:01.676Z,63.30
2018-02-18T15:17:29.161Z,63.30
2018-02-18T15:19:57.067Z,62.90
2018-02-18T15:22:24.566Z,62.90
2018-02-18T15:24:52.096Z,63.10
2018-02-18T15:27:19.980Z,64.10
2018-02-18T15:29:47.876Z,65.10
2018-02-18T15:32:15.365Z,65.10
2018-02-18T15:34:42.872Z,64.80
2018-02-18T15:37:10.359Z,64.10
2018-02-18T15:39:38.267Z,64.60
2018-02-18T15:42:05.765Z,64.60
2018-02-18T15:44:33.280Z,64.70
2018-02-18T15:47:01.173Z,64.50
2018-02-18T15:49:29.072Z,64.70
2018-02-18T15:51:56.565Z,64.70
2018-02-18T15:54:24.059Z,65.00
2018-02-18T15:56:51.545Z,65.00
2018-02-18T15:59:19.049Z,64.50
2018-02-18T16:01:47.463Z,64.70
2018-02-18T16:04:15.009Z,64.30
2018-02-18T16:06:42.488Z,64.70
2018-02-18T16:09:10.029Z,65.10
2018-02-18T16:11:37.917Z,64.60
2018-02-18T16:14:05.818Z,64.80
2018-02-18T16:16:33.311Z,64.80
2018-02-18T16:19:00.822Z,64.80
2018-02-18T16:21:28.318Z,66.00
2018-02-18T16:23:55.821Z,64.00
2018-02-18T16:26:23.317Z,64.20
2018-02-18T16:28:50.821Z,64.40
2018-02-18T16:31:18.710Z,64.70
2018-02-18T16:33:46.264Z,64.70
2018-02-18T16:36:14.176Z,64.90
2018-02-18T16:38:41.667Z,64.90
2018-02-18T16:41:09.181Z,65.00
2018-02-18T16:43:36.757Z,64.80
2018-02-18T16:46:04.768Z,65.00
2018-02-18T16:48:32.252Z,65.00
2018-02-18T16:50:59.811Z,65.00
2018-02-18T16:53:27.659Z,65.30
2018-02-18T16:55:55.165Z,65.30
2018-02-18T16:58:22.661Z,65.70
2018-02-18T17:00:50.163Z,66.10
2018-02-18T17:03:17.662Z,66.80
2018-02-18T17:05:45.172Z,66.40
2018-02-18T17:08:12.652Z,66.50
2018-02-18T17:10:40.161Z,66.70
2018-02-18T17:13:08.045Z,66.80
2018-02-18T17:15:35.557Z,66.80
2018-02-18T17:18:03.040Z,67.60
2018-02-18T17:20:30.540Z,67.80
2018-02-18T17:22:58.029Z,67.90
2018-02-18T17:25:25.929Z,68.50
2018-02-18T17:27:53.408Z,68.50
2018-02-18T17:30:20.912Z,68.10
2018-02-18T17:32:48.402Z,68.20
2018-02-18T17:35:15.914Z,68.40
2018-02-18T17:37:43.413Z,68.40
2018-02-18T17:40:10.918Z,68.50
2018-02-18T17:42:38.405Z,68.50
2018-02-18T17:45:06.313Z,68.70
2018-02-18T17:47:33.853Z,68.70
2018-02-18T17:50:01.766Z,68.70
2018-02-18T17:52:29.252Z,68.70
2018-02-18T17:54:56.760Z,68.90
2018-02-18T17:57:24.282Z,69.10
2018-02-18T17:59:51.785Z,69.70
2018-02-18T18:02:19.320Z,69.90
2018-02-18T18:04:46.858Z,69.90
2018-02-18T18:07:14.764Z,70.10
2018-02-18T18:09:42.309Z,70.10
2018-02-18T18:12:10.217Z,70.30
2018-02-18T18:14:37.711Z,70.30
2018-02-18T18:17:05.242Z,70.50
2018-02-18T18:19:32.734Z,70.50
2018-02-18T18:22:00.410Z,70.90
2018-02-18T18:24:28.262Z,70.80
2018-02-18T18:26:56.161Z,70.80
2018-02-18T18:29:23.702Z,70.80
2018-02-18T18:31:51.632Z,71.40
2018-02-18T18:34:19.126Z,71.40
2018-02-18T18:36:46.648Z,71.40
2018-02-18T18:39:14.138Z,71.50
2018-02-18T18:41:41.637Z,71.70
2018-02-18T18:44:09.129Z,71.80
2018-02-18T18:46:36.734Z,71.90
2018-02-18T18:49:04.606Z,72.00
2018-02-18T18:51:32.245Z,72.00
2018-02-18T18:53:59.727Z,72.20
2018-02-18T18:56:27.272Z,72.20
2018-02-18T18:58:54.765Z,72.00
2018-02-18T19:01:22.381Z,72.40
2018-02-18T19:03:49.870Z,72.60
2018-02-18T19:06:17.517Z,72.80
2018-02-18T19:08:45.040Z,73.00
2018-02-18T19:11:12.554Z,73.10
2018-02-18T19:13:40.065Z,73.10
2018-02-18T19:16:07.563Z,73.10
2018-02-18T19:18:35.054Z,73.00
2018-02-18T19:21:02.961Z,73.10
2018-02-18T19:23:30.445Z,73.10
2018-02-18T19:25:57.959Z,73.10
2018-02-18T19:28:25.546Z,73.20
2018-02-18T19:30:53.041Z,73.20
2018-02-18T19:33:20.550Z,73.60
2018-02-18T19:35:48.057Z,73.40
2018-02-18T19:38:15.955Z,73.80
2018-02-18T19:40:43.462Z,73.80
2018-02-18T19:43:10.969Z,73.90
2018-02-18T19:45:38.896Z,74.10
2018-02-18T19:48:06.406Z,74.10
2018-02-18T19:50:34.021Z,74.20
2018-02-18T19:53:01.531Z,74.30
2018-02-18T19:55:29.031Z,74.60
2018-02-18T19:57:56.546Z,74.60
2018-02-18T20:00:24.036Z,74.50
2018-02-18T20:02:51.536Z,74.30
2018-02-18T20:05:19.025Z,74.30
2018-02-18T20:07:46.926Z,74.60
2018-02-18T20:10:14.417Z,74.60
2018-02-18T20:12:41.921Z,74.70
2018-02-18T20:15:09.412Z,74.60
2018-02-18T20:17:37.308Z,74.60
2018-02-18T20:20:05.198Z,74.40
2018-02-18T20:22:32.705Z,74.40
2018-02-18T20:25:00.206Z,74.50
2018-02-18T20:27:27.785Z,74.70
2018-02-18T20:29:55.230Z,74.60
2018-02-18T20:32:22.750Z,74.70
2018-02-18T20:34:50.237Z,75.00
2018-02-18T20:37:17.741Z,75.10
2018-02-18T20:39:45.224Z,75.20
2018-02-18T20:42:12.749Z,75.20
2018-02-18T20:44:40.241Z,75.20
2018-02-18T20:47:07.763Z,75.40
2018-02-18T20:49:35.645Z,71.50
2018-02-18T20:52:03.609Z,71.80
2018-02-18T20:54:31.097Z,71.80
2018-02-18T20:56:59.011Z,73.10
2018-02-18T20:59:26.497Z,73.10
2018-02-18T21:01:53.985Z,73.90
2018-02-18T21:04:21.508Z,74.90
2018-02-18T21:06:49.004Z,74.90
2018-02-18T21:09:16.508Z,75.20
2018-02-18T21:11:44.001Z,75.50
2018-02-18T21:14:11.512Z,75.90
2018-02-18T21:16:39.001Z,76.10
2018-02-18T21:19:06.518Z,76.40
2018-02-18T21:21:34.008Z,76.60
2018-02-18T21:24:01.511Z,76.90
2018-02-18T21:26:28.995Z,76.90
2018-02-18T21:28:56.496Z,77.10
2018-02-18T21:31:24.382Z,77.50
2018-02-18T21:33:51.894Z,77.50
2018-02-18T21:36:19.389Z,77.10
2018-02-18T21:38:46.901Z,77.10
2018-02-18T21:41:14.385Z,77.40
2018-02-18T21:43:41.898Z,77.50
2018-02-18T21:46:09.385Z,78.00
2018-02-18T21:48:37.390Z,78.20
2018-02-18T21:51:04.881Z,78.20
2018-02-18T21:53:32.383Z,78.10
2018-02-18T21:55:59.877Z,78.30
2018-02-18T21:58:27.789Z,78.40
2018-02-18T22:00:55.294Z,78.40
2018-02-18T22:03:22.804Z,78.70
2018-02-18T22:05:50.690Z,79.20
2018-02-18T22:08:18.589Z,79.40
2018-02-18T22:10:46.073Z,79.40
2018-02-18T22:13:13.586Z,79.70
2018-02-18T22:15:41.073Z,79.90
2018-02-18T22:18:08.963Z,80.30
2018-02-18T22:20:36.843Z,80.20
2018-02-18T22:23:04.749Z,80.10
2018-02-18T22:25:32.253Z,80.00
2018-02-18T22:27:59.749Z,80.00
2018-02-18T22:30:27.661Z,80.10
2018-02-18T22:32:55.157Z,80.10
2018-02-18T22:35:22.664Z,80.30
2018-02-18T22:37:50.157Z,80.40
2018-02-18T22:40:18.056Z,80.70
2018-02-18T22:42:45.554Z,80.60
2018-02-18T22:45:13.055Z,80.40
2018-02-18T22:47:40.545Z,80.30
2018-02-18T22:50:08.451Z,80.50
2018-02-18T22:52:35.948Z,80.50
2018-02-18T22:55:03.453Z,80.60
2018-02-18T22:57:30.935Z,80.50
2018-02-18T22:59:58.837Z,80.20
2018-02-18T23:02:26.321Z,80.20
2018-02-18T23:04:54.301Z,80.20
2018-02-18T23:07:21.793Z,80.50
2018-02-18T23:09:49.316Z,80.60
2018-02-18T23:12:17.200Z,80.60
2018-02-18T23:14:44.699Z,80.60
2018-02-18T23:17:12.185Z,80.40
2018-02-18T23:19:39.704Z,80.60
2018-02-18T23:22:07.589Z,81.00
2018-02-18T23:24:35.098Z,81.00
2018-02-18T23:27:02.585Z,81.10
2018-02-18T23:29:30.093Z,81.20
2018-02-18T23:31:57.977Z,80.80
2018-02-18T23:34:25.882Z,81.00
2018-02-18T23:36:53.377Z,81.10
2018-02-18T23:39:20.893Z,81.00
2018-02-18T23:41:48.775Z,80.80
2018-02-18T23:44:16.673Z,80.80
2018-02-18T23:46:44.160Z,80.90
2018-02-18T23:49:11.682Z,80.80
2018-02-18T23:51:39.260Z,81.20
2018-02-18T23:54:07.240Z,81.30
2018-02-18T23:56:35.146Z,81.30
2018-02-18T23:59:02.651Z,81.30
